02:55
Airports
History
Links
Donate
Help keep this website running!
PayPal
Bitcoin
This page is community maintained. The information is intended for PC simulator navigation or reference.
Always use approved charts for navigation.
YMAY
Albury Airport
Albury Airport (YMAY)
Thurgoona, New South Wales, Australia (2640)
(C)
Lat/Lng:36° 4' 0.34" S / 146° 57' 33.62" E
-36.06676 / 146.959338
Elevation:539'ft / 164mMSL
ID / ICAO:YMAY
Runways:1
Longest:07-25
Asphalt 1,899m / 6,230ft
Controlled:Yes
METAR02:00 GMT 2018-02-21
Altimeter: 30.03
Visibility: 6.2 statute miles
Wind: 4 knots (from 110°)
Temp: 25°c / 77°f
Humidity: 36.2%

METAR: YMAY 210200Z AUTO 11004KT 9999 // NCD 25/09 Q1017

(Powered by phpweather)
Airport Radio Frequencies
ACTIVATE LIGHTS ONLY MULT: 120.6
ALBURY MULT: 124.2
Tower: 124.2, 125.2
Runway 07 / 25
Dimensions:1899 x 29.9m 6230' x 98'ft
Surface:Asphalt
Edge Lights:Medium intensity
Runway 07 [A]Runway 25 [B]
Heading:081°TH 261°TH
Lat:
Lng:
36° 4' 5.08"S
146° 56' 56.1"E
36° 3' 55.59"S
146° 58' 11.13"E
User Notes and Comments
36° 4' 0.34" S / 146° 57' 33.62" E
Distance To
Airport ID:
Nearby Airports
4 AVONDALE 13.1 NM
YAVN WNW 288°
4 BOGONG PARK 13.9 NM
YBGP W 273°
4 Holbrook 33.6 NM
YHBK NE 37°
(U) Corowa 34.3 NM
YCOR W 278°
4 Mitta Mitta 38.2 NM
YITT SE 144°
4 Milawa 39.8 NM
YILA SW 227°
(U) Wangaratta 43.7 NM
YWGT SW 236°
VFR Chart
Flight Planning at SkyVector.com